PWSweather.com
Personal Weather Stations
Station Observations
SWHWX01
St AppolinardFR 38160

St AppolinardFR 38160

Lat: 45.191, Lon: 5.268

Elevation: 1460

Station Type: Davis Vantage Pro2 Plus

www.sweetwebhome.com/?show=wxindex

High Low Average
Temperature 64.1°F17.8°C 50.6°F10.3°C 55.5°F13.1°C
Dew Point 53.2°F11.8°C 48.6°F9.2°C 50.7°F10.4°C
Winds 12.8 mph 20.6 kmh Calm Calm 3.0 mph SW4.8 kmh SW
Wind Gusts 18.0 mph29.0 kmh -- 5.0 mph8.0 kmh
Humidity 93% 65% 84%
Pressure 30.02 in1016.6 mb 29.96 in1014.6 mb -
Precipitation 0.00 in0.0 mm - -
Hour Temp Dew Point Humidity Winds Wind Gusts Pressure Precip Precip Rate Daily Precip Total
12:00 AM 52.2°F11.2°C 49.1°F9.5°C 89% 12.8 mph NNW20.6 kmh NNW 18.0 mph29.0 kmh 29.98 in1015.2 mb - 0.00 in0.0 mm 0.00 in0.0 mm
12:30 AM 51.8°F11.0°C 48.9°F9.4°C 90% 1.3 mph N2.1 kmh N 5.0 mph8.0 kmh 29.98 in1015.2 mb - 0.00 in0.0 mm 0.00 in0.0 mm
01:00 AM 51.2°F10.7°C 48.6°F9.2°C 91% 1.5 mph NE2.4 kmh NE 3.0 mph4.8 kmh 29.98 in1015.2 mb - 0.00 in0.0 mm 0.00 in0.0 mm
01:30 AM 50.9°F10.5°C 48.7°F9.3°C 92% Calm Calm 1.0 mph1.6 kmh 29.98 in1015.2 mb - 0.00 in0.0 mm 0.00 in0.0 mm
02:00 AM 50.9°F10.5°C 48.9°F9.4°C 93% 0.8 mph NE1.3 kmh NE 4.0 mph6.4 kmh 29.98 in1015.2 mb - 0.00 in0.0 mm 0.00 in0.0 mm
02:30 AM 51.6°F10.9°C 49.4°F9.7°C 92% 6.8 mph N10.9 kmh N 11.0 mph17.7 kmh 29.98 in1015.2 mb - 0.00 in0.0 mm 0.00 in0.0 mm
03:00 AM 51.8°F11.0°C 49.3°F9.6°C 91% 4.2 mph NNW6.8 kmh NNW 7.0 mph11.3 kmh 29.98 in1015.2 mb - 0.00 in0.0 mm 0.00 in0.0 mm
03:30 AM 51.8°F11.0°C 49.3°F9.6°C 91% 4.3 mph NW6.9 kmh NW 8.0 mph12.9 kmh 29.98 in1015.2 mb - 0.00 in0.0 mm 0.00 in0.0 mm
04:00 AM 51.3°F10.7°C 48.8°F9.3°C 91% 3.3 mph NNW5.3 kmh NNW 6.0 mph9.7 kmh 29.97 in1014.9 mb - 0.00 in0.0 mm 0.00 in0.0 mm
04:30 AM 50.8°F10.4°C 48.6°F9.2°C 92% 2.1 mph N3.4 kmh N 4.0 mph6.4 kmh 29.97 in1014.9 mb - 0.00 in0.0 mm 0.00 in0.0 mm
05:00 AM 50.6°F10.3°C 48.7°F9.3°C 93% 4.4 mph NNE7.1 kmh NNE 10.0 mph16.1 kmh 29.98 in1015.2 mb - 0.00 in0.0 mm 0.00 in0.0 mm
05:30 AM 50.9°F10.5°C 48.9°F9.4°C 93% 5.9 mph NNW9.5 kmh NNW 10.0 mph16.1 kmh 29.98 in1015.2 mb - 0.00 in0.0 mm 0.00 in0.0 mm
06:00 AM 51.2°F10.7°C 49.2°F9.6°C 93% 1.7 mph NE2.7 kmh NE 4.0 mph6.4 kmh 29.99 in1015.6 mb - 0.00 in0.0 mm 0.00 in0.0 mm
06:30 AM 51.5°F10.8°C 49.3°F9.6°C 92% 0.2 mph NNE0.3 kmh NNE 1.0 mph1.6 kmh 29.99 in1015.6 mb - 0.00 in0.0 mm 0.00 in0.0 mm
07:00 AM 52.3°F11.3°C 50.0°F10.0°C 92% 0.3 mph N0.5 kmh N 3.0 mph4.8 kmh 29.99 in1015.6 mb - 0.00 in0.0 mm 0.00 in0.0 mm
07:30 AM 53.1°F11.7°C 49.9°F9.9°C 89% 4.1 mph NNW6.6 kmh NNW 6.0 mph9.7 kmh 30.00 in1015.9 mb - 0.00 in0.0 mm 0.00 in0.0 mm
08:00 AM 52.7°F11.5°C 49.5°F9.7°C 89% 5.7 mph NW9.2 kmh NW 9.0 mph14.5 kmh 30.00 in1015.9 mb - 0.00 in0.0 mm 0.00 in0.0 mm
08:30 AM 52.6°F11.4°C 49.8°F9.9°C 90% 3.7 mph NNW6.0 kmh NNW 4.0 mph6.4 kmh 30.01 in1016.3 mb - 0.00 in0.0 mm 0.00 in0.0 mm
09:00 AM 53.3°F11.8°C 50.1°F10.1°C 89% 2.8 mph NE4.5 kmh NE 5.0 mph8.0 kmh 30.01 in1016.3 mb - 0.00 in0.0 mm 0.00 in0.0 mm
09:30 AM 54.0°F12.2°C 50.8°F10.4°C 89% 0.1 mph NE0.2 kmh NE 1.0 mph1.6 kmh 30.01 in1016.3 mb - 0.00 in0.0 mm 0.00 in0.0 mm
10:00 AM 54.6°F12.6°C 50.5°F10.3°C 86% 3.3 mph N5.3 kmh N 5.0 mph8.0 kmh 30.01 in1016.3 mb - 0.00 in0.0 mm 0.00 in0.0 mm
10:30 AM 54.8°F12.7°C 51.0°F10.6°C 87% Calm Calm -- 30.02 in1016.6 mb - 0.00 in0.0 mm 0.00 in0.0 mm
11:00 AM 55.7°F13.2°C 51.3°F10.7°C 85% 0.2 mph NNW0.3 kmh NNW 2.0 mph3.2 kmh 30.02 in1016.6 mb - 0.00 in0.0 mm 0.00 in0.0 mm
11:30 AM 56.3°F13.5°C 51.6°F10.9°C 84% 2.9 mph NE4.7 kmh NE 5.0 mph8.0 kmh 30.02 in1016.6 mb - 0.00 in0.0 mm 0.00 in0.0 mm
12:00 PM 56.5°F13.6°C 51.1°F10.6°C 82% 2.6 mph NW4.2 kmh NW 4.0 mph6.4 kmh 30.02 in1016.6 mb - 0.00 in0.0 mm 0.00 in0.0 mm
12:30 PM 57.6°F14.2°C 51.8°F11.0°C 81% 3.4 mph NNW5.5 kmh NNW 4.0 mph6.4 kmh 30.01 in1016.3 mb - 0.00 in0.0 mm 0.00 in0.0 mm
01:00 PM 58.8°F14.9°C 52.0°F11.1°C 78% 4.3 mph NNW6.9 kmh NNW 6.0 mph9.7 kmh 30.00 in1015.9 mb - 0.00 in0.0 mm 0.00 in0.0 mm
01:30 PM 59.9°F15.5°C 51.6°F10.9°C 74% 5.0 mph N8.0 kmh N 6.0 mph9.7 kmh 30.00 in1015.9 mb - 0.00 in0.0 mm 0.00 in0.0 mm
02:00 PM 60.9°F16.1°C 52.6°F11.4°C 74% 8.5 mph N13.7 kmh N 11.0 mph17.7 kmh 29.99 in1015.6 mb - 0.00 in0.0 mm 0.00 in0.0 mm
02:30 PM 61.6°F16.4°C 52.9°F11.6°C 73% 3.5 mph NNW5.6 kmh NNW 9.0 mph14.5 kmh 29.99 in1015.6 mb - 0.00 in0.0 mm 0.00 in0.0 mm
03:00 PM 61.7°F16.5°C 53.0°F11.7°C 73% 2.4 mph NE3.9 kmh NE 6.0 mph9.7 kmh 29.98 in1015.2 mb - 0.00 in0.0 mm 0.00 in0.0 mm
03:30 PM 62.2°F16.8°C 53.1°F11.7°C 72% 6.6 mph NW10.6 kmh NW 8.0 mph12.9 kmh 29.97 in1014.9 mb - 0.00 in0.0 mm 0.00 in0.0 mm
04:00 PM 64.0°F17.8°C 53.2°F11.8°C 68% 2.5 mph ENE4.0 kmh ENE 4.0 mph6.4 kmh 29.97 in1014.9 mb - 0.00 in0.0 mm 0.00 in0.0 mm
04:30 PM 64.1°F17.8°C 52.0°F11.1°C 65% 4.2 mph N6.8 kmh N 8.0 mph12.9 kmh 29.97 in1014.9 mb - 0.00 in0.0 mm 0.00 in0.0 mm
05:00 PM 63.2°F17.3°C 52.4°F11.3°C 68% 2.9 mph E4.7 kmh E 9.0 mph14.5 kmh 29.97 in1014.9 mb - 0.00 in0.0 mm 0.00 in0.0 mm
05:30 PM 59.9°F15.5°C 51.6°F10.9°C 74% 4.8 mph NE7.7 kmh NE 11.0 mph17.7 kmh 29.97 in1014.9 mb - 0.00 in0.0 mm 0.00 in0.0 mm
06:00 PM 59.9°F15.5°C 52.3°F11.3°C 76% 1.4 mph NE2.3 kmh NE 4.0 mph6.4 kmh 29.97 in1014.9 mb - 0.00 in0.0 mm 0.00 in0.0 mm
06:30 PM 59.4°F15.2°C 51.5°F10.8°C 75% 4.3 mph N6.9 kmh N 6.0 mph9.7 kmh 29.97 in1014.9 mb - 0.00 in0.0 mm 0.00 in0.0 mm
07:00 PM 58.1°F14.5°C 51.3°F10.7°C 78% 3.6 mph NNE5.8 kmh NNE 5.0 mph8.0 kmh 29.97 in1014.9 mb - 0.00 in0.0 mm 0.00 in0.0 mm
07:30 PM 57.5°F14.2°C 51.4°F10.8°C 80% 3.5 mph N5.6 kmh N 6.0 mph9.7 kmh 29.96 in1014.6 mb - 0.00 in0.0 mm 0.00 in0.0 mm
08:00 PM 56.8°F13.8°C 51.3°F10.7°C 82% 0.4 mph N0.6 kmh N 1.0 mph1.6 kmh 29.97 in1014.9 mb - 0.00 in0.0 mm 0.00 in0.0 mm
08:30 PM 55.4°F13.0°C 51.3°F10.7°C 86% 0.3 mph N0.5 kmh N 2.0 mph3.2 kmh 29.97 in1014.9 mb - 0.00 in0.0 mm 0.00 in0.0 mm
09:00 PM 55.0°F12.8°C 50.6°F10.3°C 85% 2.4 mph N3.9 kmh N 3.0 mph4.8 kmh 29.98 in1015.2 mb - 0.00 in0.0 mm 0.00 in0.0 mm
09:30 PM 54.2°F12.3°C 50.7°F10.4°C 88% 3.1 mph N5.0 kmh N 5.0 mph8.0 kmh 29.98 in1015.2 mb - 0.00 in0.0 mm 0.00 in0.0 mm
10:00 PM 54.1°F12.3°C 50.6°F10.3°C 88% 2.7 mph N4.3 kmh N 4.0 mph6.4 kmh 29.99 in1015.6 mb - 0.00 in0.0 mm 0.00 in0.0 mm
10:30 PM 54.2°F12.3°C 51.0°F10.6°C 89% 2.5 mph N4.0 kmh N 3.0 mph4.8 kmh 30.00 in1015.9 mb - 0.00 in0.0 mm 0.00 in0.0 mm
11:00 PM 54.7°F12.6°C 51.5°F10.8°C 89% Calm Calm 1.0 mph1.6 kmh 30.00 in1015.9 mb - 0.00 in0.0 mm 0.00 in0.0 mm
11:30 PM 54.1°F12.3°C 51.2°F10.7°C 90% 0.3 mph N0.5 kmh N 2.0 mph3.2 kmh 30.00 in1015.9 mb - 0.00 in0.0 mm 0.00 in0.0 mm